createdAt,value
2018-12-14T00:00:15.724Z,70.84
2018-12-14T00:02:51.061Z,70.63
2018-12-14T00:05:24.157Z,70.58
2018-12-14T00:08:01.267Z,70.61
2018-12-14T00:10:38.186Z,71.14
2018-12-14T00:13:15.432Z,71.21
2018-12-14T00:18:30.532Z,70.96
2018-12-14T00:21:08.472Z,71.07
2018-12-14T00:23:45.661Z,70.35
2018-12-14T00:26:20.157Z,69.86
2018-12-14T00:28:54.433Z,70.30
2018-12-14T00:31:30.308Z,70.71
2018-12-14T00:34:06.491Z,69.85
2018-12-14T00:36:37.841Z,69.58
2018-12-14T00:39:09.493Z,70.51
2018-12-14T00:41:42.686Z,69.40
2018-12-14T00:44:17.555Z,68.71
2018-12-14T00:46:50.569Z,69.31
2018-12-14T00:49:21.851Z,68.89
2018-12-14T00:51:53.638Z,69.32
2018-12-14T00:54:27.919Z,69.17
2018-12-14T00:57:02.042Z,69.19
2018-12-14T00:59:32.940Z,69.46
2018-12-14T01:02:06.824Z,68.78
2018-12-14T01:04:37.796Z,68.15
2018-12-14T01:07:12.296Z,67.47
2018-12-14T01:09:49.846Z,68.13
2018-12-14T01:12:20.914Z,67.23
2018-12-14T01:14:52.156Z,67.56
2018-12-14T01:17:22.969Z,68.57
2018-12-14T01:19:53.888Z,68.26
2018-12-14T01:22:26.414Z,68.37
2018-12-14T01:24:58.966Z,68.44
2018-12-14T01:27:34.820Z,68.63
2018-12-14T01:30:09.225Z,68.83
2018-12-14T01:32:45.803Z,69.00
2018-12-14T01:35:31.461Z,69.04
2018-12-14T01:38:07.836Z,68.16
2018-12-14T01:40:43.241Z,68.84
2018-12-14T01:43:17.898Z,68.86
2018-12-14T01:45:52.202Z,68.72
2018-12-14T01:48:23.228Z,68.91
2018-12-14T01:50:56.193Z,69.05
2018-12-14T01:53:27.134Z,68.74
2018-12-14T01:55:58.069Z,68.61
2018-12-14T01:58:28.941Z,68.92
2018-12-14T02:01:00.462Z,69.19
2018-12-14T02:03:36.621Z,69.18
2018-12-14T02:06:08.837Z,68.75
2018-12-14T02:08:42.649Z,69.58
2018-12-14T02:11:17.507Z,68.53
2018-12-14T02:13:48.539Z,68.80
2018-12-14T02:16:19.679Z,68.31
2018-12-14T02:18:51.421Z,68.31
2018-12-14T02:21:32.749Z,68.57
2018-12-14T02:24:03.682Z,68.10
2018-12-14T02:26:34.597Z,68.44
2018-12-14T02:29:05.944Z,68.22
2018-12-14T02:31:37.926Z,68.40
2018-12-14T02:34:11.881Z,68.80
2018-12-14T02:36:44.517Z,69.24
2018-12-14T02:39:17.561Z,68.92
2018-12-14T02:41:49.093Z,68.61
2018-12-14T02:44:20.284Z,68.53
2018-12-14T02:46:52.327Z,68.87
2018-12-14T02:49:23.199Z,68.63
2018-12-14T02:51:57.254Z,68.60
2018-12-14T02:54:28.316Z,67.93
2018-12-14T02:56:59.939Z,67.93
2018-12-14T02:59:31.057Z,67.79
2018-12-14T03:02:03.116Z,67.23
2018-12-14T03:04:35.623Z,68.18
2018-12-14T03:07:08.792Z,68.41
2018-12-14T03:09:43.549Z,68.28
2018-12-14T03:12:16.401Z,68.13
2018-12-14T03:14:50.767Z,68.54
2018-12-14T03:17:23.108Z,67.54
2018-12-14T03:19:54.742Z,67.71
2018-12-14T03:22:30.940Z,67.85
2018-12-14T03:25:06.319Z,66.84
2018-12-14T03:27:40.897Z,67.63
2018-12-14T03:30:15.010Z,67.11
2018-12-14T03:32:46.229Z,66.59
2018-12-14T03:35:17.091Z,66.26
2018-12-14T03:37:49.477Z,66.61
2018-12-14T03:40:20.455Z,67.49
2018-12-14T03:42:51.774Z,67.52
2018-12-14T03:45:26.104Z,66.91
2018-12-14T03:47:57.083Z,67.96
2018-12-14T03:50:27.993Z,67.23
2018-12-14T03:52:59.126Z,67.56
2018-12-14T03:55:30.092Z,67.58
2018-12-14T03:58:01.223Z,66.48
2018-12-14T04:00:32.391Z,66.82
2018-12-14T04:03:03.861Z,67.00
2018-12-14T04:05:34.988Z,67.11
2018-12-14T04:08:05.838Z,66.61
2018-12-14T04:10:36.761Z,66.08
2018-12-14T04:13:07.597Z,66.88
2018-12-14T04:15:39.977Z,66.95
2018-12-14T04:18:10.844Z,66.96
2018-12-14T04:21:03.054Z,66.83
2018-12-14T04:23:35.105Z,67.03
2018-12-14T04:26:08.425Z,66.22
2018-12-14T04:28:42.817Z,66.89
2018-12-14T04:31:17.264Z,67.30
2018-12-14T04:33:53.871Z,67.46
2018-12-14T04:36:24.925Z,67.37
2018-12-14T04:39:01.439Z,67.71
2018-12-14T04:41:34.592Z,67.29
2018-12-14T04:44:11.323Z,67.39
2018-12-14T04:46:42.632Z,66.42
2018-12-14T04:49:13.626Z,66.43
2018-12-14T04:51:44.620Z,67.03
2018-12-14T04:54:15.553Z,67.35
2018-12-14T04:56:48.027Z,67.32
2018-12-14T04:59:18.998Z,66.86
2018-12-14T05:01:49.930Z,67.27
2018-12-14T05:04:21.919Z,66.61
2018-12-14T05:06:53.421Z,66.86
2018-12-14T05:09:24.552Z,66.34
2018-12-14T05:12:00.746Z,66.52
2018-12-14T05:14:32.020Z,65.70
2018-12-14T05:17:07.272Z,65.78
2018-12-14T05:19:40.009Z,66.36
2018-12-14T05:22:12.359Z,66.53
2018-12-14T05:24:44.672Z,66.55
2018-12-14T05:27:18.162Z,66.96
2018-12-14T05:29:53.084Z,67.23
2018-12-14T05:32:27.328Z,66.96
2018-12-14T05:35:03.612Z,66.85
2018-12-14T05:37:38.322Z,67.71
2018-12-14T05:40:14.573Z,66.48
2018-12-14T05:42:47.156Z,66.72
2018-12-14T05:45:23.452Z,66.73
2018-12-14T05:48:05.847Z,66.15
2018-12-14T05:50:36.868Z,65.79
2018-12-14T05:53:12.909Z,66.20
2018-12-14T05:55:49.568Z,65.98
2018-12-14T05:58:26.436Z,66.54
2018-12-14T06:00:58.753Z,66.20
2018-12-14T06:03:33.792Z,66.58
2018-12-14T06:06:20.560Z,67.05
2018-12-14T06:08:55.232Z,66.39
2018-12-14T06:11:26.581Z,66.18
2018-12-14T06:13:57.667Z,66.49
2018-12-14T06:16:28.618Z,66.28
2018-12-14T06:19:00.092Z,66.52
2018-12-14T06:21:32.356Z,66.94
2018-12-14T06:24:03.821Z,66.70
2018-12-14T06:26:34.893Z,67.38
2018-12-14T06:29:05.776Z,67.04
2018-12-14T06:31:36.784Z,67.06
2018-12-14T06:34:19.182Z,66.29
2018-12-14T06:36:53.547Z,67.04
2018-12-14T06:39:28.568Z,67.38
2018-12-14T06:42:00.755Z,67.99
2018-12-14T06:44:31.856Z,66.72
2018-12-14T06:47:02.902Z,66.81
2018-12-14T06:49:34.235Z,66.92
2018-12-14T06:52:05.411Z,67.19
2018-12-14T06:54:36.381Z,66.37
2018-12-14T06:57:07.394Z,66.92
2018-12-14T06:59:38.454Z,66.44
2018-12-14T07:02:09.811Z,66.06
2018-12-14T07:04:40.820Z,66.47
2018-12-14T07:07:11.947Z,66.87
2018-12-14T07:09:43.123Z,66.91
2018-12-14T07:12:15.923Z,67.54
2018-12-14T07:14:47.017Z,67.63
2018-12-14T07:17:18.105Z,67.20
2018-12-14T07:19:49.132Z,67.28
2018-12-14T07:22:22.216Z,67.64
2018-12-14T07:24:53.531Z,67.25
2018-12-14T07:27:24.604Z,67.35
2018-12-14T07:29:55.593Z,67.59
2018-12-14T07:32:28.120Z,67.13
2018-12-14T07:35:00.350Z,66.40
2018-12-14T07:37:33.068Z,67.18
2018-12-14T07:40:04.728Z,67.04
2018-12-14T07:42:41.189Z,66.21
2018-12-14T07:45:13.772Z,66.63
2018-12-14T07:47:50.298Z,65.94
2018-12-14T07:50:21.603Z,66.80
2018-12-14T07:52:54.733Z,67.33
2018-12-14T07:55:25.832Z,66.88
2018-12-14T07:57:58.701Z,67.51
2018-12-14T08:00:29.641Z,67.07
2018-12-14T08:03:00.640Z,67.93
2018-12-14T08:05:31.597Z,66.69
2018-12-14T08:08:02.662Z,67.16
2018-12-14T08:10:34.017Z,66.51
2018-12-14T08:13:05.268Z,67.14
2018-12-14T08:15:36.312Z,67.19
2018-12-14T08:18:07.552Z,67.88
2018-12-14T08:20:38.480Z,66.96
2018-12-14T08:23:09.522Z,67.87
2018-12-14T08:25:40.463Z,67.79
2018-12-14T08:28:11.576Z,67.02
2018-12-14T08:30:42.724Z,67.40
2018-12-14T08:33:14.529Z,66.82
2018-12-14T08:35:45.460Z,67.49
2018-12-14T08:38:16.725Z,67.66
2018-12-14T08:40:47.604Z,67.07
2018-12-14T08:43:18.653Z,66.74
2018-12-14T08:45:49.651Z,66.38
2018-12-14T08:48:20.600Z,66.33
2018-12-14T08:50:52.049Z,66.61
2018-12-14T08:53:23.392Z,66.90
2018-12-14T08:55:54.540Z,66.58
2018-12-14T08:58:25.840Z,67.15
2018-12-14T09:00:56.880Z,65.96
2018-12-14T09:03:28.766Z,66.46
2018-12-14T09:05:59.824Z,66.35
2018-12-14T09:08:30.864Z,66.29
2018-12-14T09:11:02.078Z,66.79
2018-12-14T09:13:34.381Z,66.63
2018-12-14T09:16:05.319Z,66.23
2018-12-14T09:18:36.328Z,66.00
2018-12-14T09:21:07.479Z,66.38
2018-12-14T09:23:38.595Z,66.75
2018-12-14T09:26:09.697Z,66.38
2018-12-14T09:28:42.177Z,66.56
2018-12-14T09:31:13.232Z,66.51
2018-12-14T09:33:44.252Z,66.48
2018-12-14T09:36:15.511Z,66.42
2018-12-14T09:38:46.520Z,66.50
2018-12-14T09:41:17.948Z,66.67
2018-12-14T09:43:54.380Z,66.47
2018-12-14T09:46:22.312Z,66.08
2018-12-14T09:48:54.072Z,66.03
2018-12-14T09:51:25.028Z,66.34
2018-12-14T09:53:55.985Z,66.78
2018-12-14T09:56:30.749Z,66.53
2018-12-14T09:59:03.275Z,66.80
2018-12-14T10:01:34.209Z,66.58
2018-12-14T10:04:05.528Z,66.76
2018-12-14T10:06:36.474Z,66.41
2018-12-14T10:09:08.016Z,66.86
2018-12-14T10:11:39.257Z,65.79
2018-12-14T10:14:10.233Z,66.31
2018-12-14T10:16:42.586Z,66.83
2018-12-14T10:19:14.101Z,66.64
2018-12-14T10:24:23.624Z,66.14
2018-12-14T10:26:54.757Z,66.63
2018-12-14T10:29:26.105Z,66.57
2018-12-14T10:31:57.072Z,66.58
2018-12-14T10:34:28.054Z,66.65
2018-12-14T10:36:59.008Z,67.72
2018-12-14T10:39:29.836Z,66.88
2018-12-14T10:42:00.784Z,66.05
2018-12-14T10:44:32.109Z,66.89
2018-12-14T10:47:03.186Z,66.50
2018-12-14T10:49:34.122Z,67.08
2018-12-14T10:52:09.263Z,66.95
2018-12-14T10:54:40.584Z,66.45
2018-12-14T10:57:16.167Z,66.87
2018-12-14T10:59:44.967Z,67.06
2018-12-14T11:02:33.485Z,67.32
2018-12-14T11:05:07.977Z,67.24
2018-12-14T11:07:39.764Z,66.94
2018-12-14T11:10:13.788Z,64.81
2018-12-14T11:12:50.214Z,64.62
2018-12-14T11:15:25.273Z,65.09
2018-12-14T11:17:59.812Z,64.86
2018-12-14T11:20:35.027Z,64.53
2018-12-14T11:23:09.876Z,64.53
2018-12-14T11:25:43.997Z,65.19
2018-12-14T11:28:19.282Z,65.33
2018-12-14T11:30:54.057Z,65.11
2018-12-14T11:33:30.633Z,64.90
2018-12-14T11:36:07.688Z,65.53
2018-12-14T11:38:55.809Z,65.52
2018-12-14T11:41:31.432Z,66.19
2018-12-14T11:44:03.088Z,66.60
2018-12-14T11:46:35.656Z,65.63
2018-12-14T11:49:06.845Z,64.87
2018-12-14T11:51:43.602Z,64.89
2018-12-14T11:54:18.438Z,66.22
2018-12-14T11:56:52.574Z,66.10
2018-12-14T11:59:29.881Z,65.38
2018-12-14T12:02:02.641Z,65.15
2018-12-14T12:04:34.782Z,65.19
2018-12-14T12:07:09.358Z,64.80
2018-12-14T12:09:42.957Z,64.81
2018-12-14T12:12:17.349Z,64.95
2018-12-14T12:14:52.678Z,64.91
2018-12-14T12:17:29.187Z,64.39
2018-12-14T12:20:00.449Z,64.62
2018-12-14T12:22:33.232Z,64.47
2018-12-14T12:25:07.309Z,64.37
2018-12-14T12:27:43.791Z,64.23
2018-12-14T12:30:16.260Z,64.03
2018-12-14T12:32:48.248Z,65.33
2018-12-14T12:35:29.204Z,64.59
2018-12-14T12:38:03.440Z,65.13
2018-12-14T12:40:38.726Z,65.08
2018-12-14T12:43:10.806Z,65.90
2018-12-14T12:45:44.785Z,66.10
2018-12-14T12:48:21.731Z,65.48
2018-12-14T12:51:02.858Z,65.44
2018-12-14T12:53:30.824Z,65.21
2018-12-14T12:56:05.386Z,65.40
2018-12-14T12:58:38.918Z,64.14
2018-12-14T13:01:13.246Z,64.61
2018-12-14T13:03:47.209Z,64.15
2018-12-14T13:06:19.244Z,64.21
2018-12-14T13:08:55.845Z,64.61
2018-12-14T13:11:27.057Z,65.01
2018-12-14T13:13:59.781Z,64.79
2018-12-14T13:16:30.791Z,64.27
2018-12-14T13:19:02.346Z,63.91
2018-12-14T13:21:34.908Z,63.82
2018-12-14T13:24:20.937Z,63.78
2018-12-14T13:26:55.933Z,63.43
2018-12-14T13:32:00.989Z,63.86
2018-12-14T13:34:35.532Z,63.01
2018-12-14T13:37:10.093Z,63.25
2018-12-14T13:39:46.658Z,63.60
2018-12-14T13:42:17.773Z,63.53
2018-12-14T13:44:49.426Z,64.30
2018-12-14T13:47:20.448Z,64.21
2018-12-14T13:49:51.483Z,63.69
2018-12-14T13:52:22.508Z,64.31
2018-12-14T13:54:54.631Z,64.63
2018-12-14T13:57:25.644Z,65.17
2018-12-14T13:59:56.577Z,64.19
2018-12-14T14:02:27.965Z,64.25
2018-12-14T14:04:59.089Z,64.00
2018-12-14T14:07:30.195Z,64.90
2018-12-14T14:10:02.674Z,65.17
2018-12-14T14:12:37.406Z,64.52
2018-12-14T14:15:10.696Z,64.52
2018-12-14T14:17:47.282Z,65.36
2018-12-14T14:23:20.789Z,65.26
2018-12-14T14:25:55.206Z,65.35
2018-12-14T14:28:27.058Z,64.65
2018-12-14T14:30:58.108Z,64.68
2018-12-14T14:33:29.149Z,64.47
2018-12-14T14:36:00.192Z,65.43
2018-12-14T14:38:31.201Z,65.75
2018-12-14T14:41:02.302Z,64.89
2018-12-14T14:43:33.477Z,64.90
2018-12-14T14:46:13.491Z,64.94
2018-12-14T14:48:44.374Z,64.32
2018-12-14T14:51:15.784Z,64.93
2018-12-14T14:53:47.219Z,65.47
2018-12-14T14:56:18.576Z,65.03
2018-12-14T14:58:53.173Z,65.51
2018-12-14T15:01:24.836Z,64.48
2018-12-14T15:03:56.882Z,65.46
2018-12-14T15:06:36.347Z,66.62
2018-12-14T15:09:12.516Z,66.04
2018-12-14T15:11:49.568Z,66.75
2018-12-14T15:14:35.009Z,66.88
2018-12-14T15:17:07.528Z,67.19
2018-12-14T15:19:40.326Z,65.55
2018-12-14T15:22:12.337Z,65.72
2018-12-14T15:24:44.072Z,65.34
2018-12-14T15:27:27.896Z,66.12
2018-12-14T15:29:59.951Z,66.34
2018-12-14T15:32:31.212Z,66.36
2018-12-14T15:35:02.852Z,66.81
2018-12-14T15:37:34.566Z,66.64
2018-12-14T15:43:00.534Z,67.24
2018-12-14T15:45:33.292Z,65.88
2018-12-14T15:48:06.597Z,65.64
2018-12-14T15:50:39.492Z,65.98
2018-12-14T15:53:12.074Z,65.99
2018-12-14T16:01:48.142Z,66.62
2018-12-14T16:04:21.253Z,66.72
2018-12-14T16:06:53.514Z,66.29
2018-12-14T16:09:26.441Z,66.59
2018-12-14T16:11:57.394Z,66.37
2018-12-14T16:14:34.274Z,66.63
2018-12-14T16:17:02.030Z,66.90
2018-12-14T16:19:33.605Z,65.75
2018-12-14T16:22:04.923Z,66.29
2018-12-14T16:24:49.216Z,66.62
2018-12-14T16:27:20.187Z,66.07
2018-12-14T16:29:51.406Z,66.51
2018-12-14T16:32:23.752Z,66.57
2018-12-14T16:34:54.841Z,66.32
2018-12-14T16:37:26.968Z,67.01
2018-12-14T16:40:02.944Z,66.87
2018-12-14T16:42:36.905Z,66.83
2018-12-14T16:45:13.621Z,66.74
2018-12-14T16:47:51.067Z,67.83
2018-12-14T16:50:25.799Z,67.26
2018-12-14T16:53:03.169Z,66.73
2018-12-14T16:55:34.598Z,66.23
2018-12-14T16:58:13.196Z,66.43
2018-12-14T17:00:50.724Z,66.31
2018-12-14T17:03:25.714Z,67.41
2018-12-14T17:05:57.590Z,68.48
2018-12-14T17:08:29.886Z,68.20
2018-12-14T17:11:01.702Z,66.01
2018-12-14T17:13:34.761Z,66.59
2018-12-14T17:16:07.624Z,66.77
2018-12-14T17:18:40.799Z,67.13
2018-12-14T17:21:13.552Z,66.87
2018-12-14T17:23:45.689Z,67.29
2018-12-14T17:26:19.211Z,67.76
2018-12-14T17:28:50.513Z,67.78
2018-12-14T17:31:22.297Z,67.09
2018-12-14T17:33:55.886Z,67.33
2018-12-14T17:36:29.910Z,66.86
2018-12-14T17:39:01.071Z,67.39
2018-12-14T17:41:33.833Z,67.39
2018-12-14T17:44:05.451Z,67.10
2018-12-14T17:46:37.285Z,67.34
2018-12-14T17:49:08.896Z,67.35
2018-12-14T17:51:41.685Z,67.50
2018-12-14T17:54:13.954Z,67.02
2018-12-14T17:56:46.231Z,67.52
2018-12-14T17:59:17.584Z,67.01
2018-12-14T18:01:51.465Z,66.77
2018-12-14T18:04:25.036Z,66.92
2018-12-14T18:06:56.650Z,67.84
2018-12-14T18:09:28.656Z,67.22
2018-12-14T18:12:00.393Z,67.46
2018-12-14T18:14:32.712Z,67.51
2018-12-14T18:17:05.835Z,68.11
2018-12-14T18:19:37.145Z,67.83
2018-12-14T18:22:08.606Z,66.93
2018-12-14T18:24:41.940Z,67.21
2018-12-14T18:27:13.794Z,67.70
2018-12-14T18:29:47.046Z,69.21
2018-12-14T18:32:18.229Z,68.79
2018-12-14T18:34:51.420Z,67.60
2018-12-14T18:37:22.823Z,67.43
2018-12-14T18:39:54.872Z,68.34
2018-12-14T18:42:26.839Z,68.10
2018-12-14T18:44:58.193Z,68.82
2018-12-14T18:47:29.795Z,68.70
2018-12-14T18:50:01.400Z,68.54
2018-12-14T18:52:34.634Z,68.01
2018-12-14T18:55:06.410Z,67.71
2018-12-14T18:57:37.391Z,68.53
2018-12-14T19:00:10.153Z,68.10
2018-12-14T19:02:42.945Z,68.71
2018-12-14T19:05:14.367Z,69.07
2018-12-14T19:07:47.462Z,68.44
2018-12-14T19:10:18.995Z,67.87
2018-12-14T19:12:50.990Z,67.27
2018-12-14T19:15:24.502Z,68.31
2018-12-14T19:17:57.550Z,68.35
2018-12-14T19:20:30.198Z,67.39
2018-12-14T19:23:03.530Z,68.48
2018-12-14T19:25:42.647Z,68.22
2018-12-14T19:28:19.982Z,69.03
2018-12-14T19:31:00.183Z,69.07
2018-12-14T19:33:33.540Z,69.34
2018-12-14T19:36:06.205Z,70.23
2018-12-14T19:38:47.204Z,69.65
2018-12-14T19:41:18.771Z,70.13
2018-12-14T19:43:51.435Z,70.84
2018-12-14T19:46:29.233Z,70.84
2018-12-14T19:49:02.357Z,70.16
2018-12-14T19:51:35.001Z,70.51
2018-12-14T19:54:07.367Z,70.29
2018-12-14T19:56:39.497Z,70.84
2018-12-14T19:59:10.773Z,72.34
2018-12-14T20:01:45.810Z,72.30
2018-12-14T20:04:17.289Z,73.18
2018-12-14T20:06:48.754Z,72.97
2018-12-14T20:09:29.329Z,72.79
2018-12-14T20:12:03.308Z,71.04
2018-12-14T20:14:42.585Z,71.28
2018-12-14T20:17:17.758Z,71.07
2018-12-14T20:19:53.098Z,71.39
2018-12-14T20:22:25.464Z,70.14
2018-12-14T20:25:00.956Z,69.94
2018-12-14T20:27:36.553Z,69.68
2018-12-14T20:30:09.336Z,69.68
2018-12-14T20:32:46.246Z,69.26
2018-12-14T20:35:22.175Z,69.32
2018-12-14T20:37:54.779Z,69.59
2018-12-14T20:43:23.077Z,69.24
2018-12-14T20:45:54.713Z,70.15
2018-12-14T20:48:27.627Z,68.89
2018-12-14T20:51:00.880Z,68.99
2018-12-14T20:53:35.017Z,68.82
2018-12-14T20:56:23.205Z,68.59
2018-12-14T20:59:22.355Z,67.90
2018-12-14T21:04:53.678Z,68.44
2018-12-14T21:07:41.176Z,67.99
2018-12-14T21:10:13.233Z,68.04
2018-12-14T21:15:41.548Z,67.90
2018-12-14T21:18:15.541Z,67.89
2018-12-14T21:23:35.847Z,68.28
2018-12-14T21:26:22.099Z,67.87
2018-12-14T21:32:02.655Z,68.72
2018-12-14T21:34:36.835Z,67.27
2018-12-14T21:37:39.047Z,66.86
2018-12-14T21:40:22.605Z,68.00
2018-12-14T21:42:57.562Z,67.59
2018-12-14T21:45:29.560Z,67.84
2018-12-14T21:48:01.776Z,67.32
2018-12-14T21:50:33.065Z,67.66
2018-12-14T21:53:05.042Z,68.05
2018-12-14T21:55:37.976Z,67.88
2018-12-14T21:58:09.436Z,69.15
2018-12-14T22:00:41.268Z,69.74
2018-12-14T22:03:12.744Z,68.69
2018-12-14T22:05:56.791Z,68.81
2018-12-14T22:08:28.332Z,68.14
2018-12-14T22:11:04.585Z,67.29
2018-12-14T22:13:40.664Z,66.82
2018-12-14T22:19:22.656Z,66.87
2018-12-14T22:21:59.540Z,66.83
2018-12-14T22:24:36.397Z,66.53
2018-12-14T22:27:07.952Z,67.00
2018-12-14T22:29:39.328Z,67.39
2018-12-14T22:32:10.854Z,67.35
2018-12-14T22:34:42.485Z,67.12
2018-12-14T22:37:13.952Z,67.79
2018-12-14T22:39:47.001Z,67.09
2018-12-14T22:42:23.719Z,67.57
2018-12-14T22:45:01.119Z,67.65
2018-12-14T22:47:37.894Z,68.17
2018-12-14T22:50:13.157Z,68.13
2018-12-14T22:52:46.381Z,68.13
2018-12-14T22:55:18.887Z,68.13
2018-12-14T22:57:53.850Z,67.81
2018-12-14T23:00:26.397Z,67.85
2018-12-14T23:03:12.837Z,67.01
2018-12-14T23:11:28.342Z,67.18
2018-12-14T23:14:05.659Z,67.54
2018-12-14T23:16:52.110Z,68.28
2018-12-14T23:19:25.748Z,67.41
2018-12-14T23:22:03.612Z,67.05
2018-12-14T23:24:42.873Z,67.95
2018-12-14T23:27:14.173Z,67.51
2018-12-14T23:29:45.584Z,67.33
2018-12-14T23:32:16.817Z,66.47
2018-12-14T23:34:47.900Z,66.57
2018-12-14T23:37:19.221Z,66.88
2018-12-14T23:39:53.429Z,67.36
2018-12-14T23:42:24.540Z,67.72
2018-12-14T23:44:56.293Z,67.41
2018-12-14T23:47:27.700Z,67.90
2018-12-14T23:50:00.281Z,67.85
2018-12-14T23:52:36.721Z,67.43
2018-12-14T23:55:08.159Z,68.08
2018-12-14T23:57:41.799Z,67.19
